Terminal Aerodrome Forecast
Issued by NWS St Louis, MO

Home | Current Version | Previous Version | Text Only | Print | Product List | Glossary On
Versions: 1 2 3 4 5 6 7 8 9 10 11 12 13 14 15 16 17 18 19 20 21 22 23 24
000
FTUS43 KLSX 230400 AAC
TAFSTL
TAF AMD
KSTL 230404Z 2304/2406 20008KT P6SM SCT010 BKN035 OVC060
      TEMPO 2304/2306 BKN008
     FM230700 23010KT P6SM SCT060
     FM231500 24008KT P6SM BKN100
     FM240000 30006KT P6SM BKN100=

USA.gov is the U.S. government's official web portal to all federal, state and local government web resources and services.